Georgetown, Delaware
Current Conditions -  °F | °C
As of 4:54 AM on Thursday 23 Oct 2014 (Local Time) from KGED Reporting Station
Overcast Overcast  
Wind Chill: 53°   Ceiling: 2400
Heat Index: 53°   Visibility: 10mi
Dew Point: 46°   Wind: 8mph
Humidity: 77%   Direction: 330°NNW
Pressure: 29.77"   Gusts: NA
Location:  38.69°N, 75.39°W
Report Text: KGED 230854Z AUTO 33007KT 300V360 10SM OVC024 12/08 A2977 RMK AO2 RAB04E23 SLP079 P0000 60001 T01170078 55004
Loading
Personal Weather Stations






























Interactive Weather Map New forecast layout! Learn more

10-Day Weather Forecast

Advertisements
Track Severe Weather on mobile